sensor_id;sensor_type;location;lat;lon;timestamp;pressure;altitude;pressure_sealevel;temperature;humidity
38289;BME280;24092;53.370;-6.588;2023-04-04T00:02:13;101965.67;;;6.62;100.00
38289;BME280;24092;53.370;-6.588;2023-04-04T00:04:40;101960.96;;;6.35;100.00
38289;BME280;24092;53.370;-6.588;2023-04-04T00:07:07;101958.79;;;6.58;100.00
38289;BME280;24092;53.370;-6.588;2023-04-04T00:09:34;101959.93;;;5.28;100.00
38289;BME280;24092;53.370;-6.588;2023-04-04T00:12:02;101960.71;;;5.84;100.00
38289;BME280;24092;53.370;-6.588;2023-04-04T00:14:28;101954.44;;;5.85;100.00
38289;BME280;24092;53.370;-6.588;2023-04-04T00:16:56;101957.44;;;5.75;100.00
38289;BME280;24092;53.370;-6.588;2023-04-04T00:19:23;101959.57;;;4.95;100.00
38289;BME280;24092;53.370;-6.588;2023-04-04T00:21:50;101961.40;;;4.72;100.00
38289;BME280;24092;53.370;-6.588;2023-04-04T00:24:17;101960.63;;;5.97;100.00
38289;BME280;24092;53.370;-6.588;2023-04-04T00:26:44;101956.08;;;6.14;100.00
38289;BME280;24092;53.370;-6.588;2023-04-04T00:29:11;101956.58;;;6.15;100.00
38289;BME280;24092;53.370;-6.588;2023-04-04T00:31:38;101954.16;;;6.32;100.00
38289;BME280;24092;53.370;-6.588;2023-04-04T00:34:05;101950.84;;;6.92;100.00
38289;BME280;24092;53.370;-6.588;2023-04-04T00:36:32;101947.99;;;6.12;100.00
38289;BME280;24092;53.370;-6.588;2023-04-04T00:38:59;101945.56;;;6.00;100.00
38289;BME280;24092;53.370;-6.588;2023-04-04T00:41:26;101941.40;;;6.02;100.00
38289;BME280;24092;53.370;-6.588;2023-04-04T00:43:54;101940.20;;;6.18;100.00
38289;BME280;24092;53.370;-6.588;2023-04-04T00:46:22;101939.09;;;6.10;100.00
38289;BME280;24092;53.370;-6.588;2023-04-04T00:48:49;101936.97;;;5.51;100.00
38289;BME280;24092;53.370;-6.588;2023-04-04T00:51:17;101938.14;;;6.88;100.00
38289;BME280;24092;53.370;-6.588;2023-04-04T00:53:45;101937.36;;;6.46;100.00
38289;BME280;24092;53.370;-6.588;2023-04-04T00:56:13;101936.95;;;6.06;100.00
38289;BME280;24092;53.370;-6.588;2023-04-04T00:58:42;101939.35;;;6.84;100.00
38289;BME280;24092;53.370;-6.588;2023-04-04T01:01:09;101940.37;;;4.48;100.00
38289;BME280;24092;53.370;-6.588;2023-04-04T01:03:36;101938.17;;;4.21;100.00
38289;BME280;24092;53.370;-6.588;2023-04-04T01:06:04;101936.78;;;3.19;100.00
38289;BME280;24092;53.370;-6.588;2023-04-04T01:08:32;101941.23;;;2.32;100.00
38289;BME280;24092;53.370;-6.588;2023-04-04T01:11:02;101937.43;;;3.03;100.00
38289;BME280;24092;53.370;-6.588;2023-04-04T01:13:31;101935.82;;;2.59;100.00
38289;BME280;24092;53.370;-6.588;2023-04-04T01:15:58;101935.01;;;3.50;100.00
38289;BME280;24092;53.370;-6.588;2023-04-04T01:18:26;101927.42;;;3.68;100.00
38289;BME280;24092;53.370;-6.588;2023-04-04T01:20:59;101926.86;;;2.77;100.00
38289;BME280;24092;53.370;-6.588;2023-04-04T01:23:34;101924.40;;;3.25;100.00
38289;BME280;24092;53.370;-6.588;2023-04-04T01:26:02;101921.77;;;4.50;100.00
38289;BME280;24092;53.370;-6.588;2023-04-04T01:28:30;101918.30;;;3.57;100.00
38289;BME280;24092;53.370;-6.588;2023-04-04T01:30:59;101916.52;;;3.78;100.00
38289;BME280;24092;53.370;-6.588;2023-04-04T01:33:28;101915.23;;;4.82;100.00
38289;BME280;24092;53.370;-6.588;2023-04-04T01:36:03;101910.89;;;3.84;100.00
38289;BME280;24092;53.370;-6.588;2023-04-04T01:38:43;101907.94;;;3.08;100.00
38289;BME280;24092;53.370;-6.588;2023-04-04T01:41:16;101908.61;;;1.85;100.00
38289;BME280;24092;53.370;-6.588;2023-04-04T01:43:44;101906.89;;;4.16;100.00
38289;BME280;24092;53.370;-6.588;2023-04-04T01:46:12;101907.52;;;2.08;100.00
38289;BME280;24092;53.370;-6.588;2023-04-04T01:48:39;101901.10;;;3.95;100.00
38289;BME280;24092;53.370;-6.588;2023-04-04T01:51:06;101900.14;;;4.68;100.00
38289;BME280;24092;53.370;-6.588;2023-04-04T01:53:33;101897.31;;;5.68;100.00
38289;BME280;24092;53.370;-6.588;2023-04-04T01:56:00;101899.02;;;6.09;100.00
38289;BME280;24092;53.370;-6.588;2023-04-04T01:58:27;101900.27;;;6.05;100.00
38289;BME280;24092;53.370;-6.588;2023-04-04T02:00:54;101900.24;;;3.91;100.00
38289;BME280;24092;53.370;-6.588;2023-04-04T02:03:21;101900.76;;;4.56;100.00
38289;BME280;24092;53.370;-6.588;2023-04-04T02:05:48;101893.80;;;6.24;100.00
38289;BME280;24092;53.370;-6.588;2023-04-04T02:08:15;101890.22;;;5.81;100.00
38289;BME280;24092;53.370;-6.588;2023-04-04T02:10:42;101884.18;;;5.77;100.00
38289;BME280;24092;53.370;-6.588;2023-04-04T02:13:09;101886.91;;;4.91;100.00
38289;BME280;24092;53.370;-6.588;2023-04-04T02:15:36;101885.27;;;6.23;100.00
38289;BME280;24092;53.370;-6.588;2023-04-04T02:18:03;101889.45;;;4.92;100.00
38289;BME280;24092;53.370;-6.588;2023-04-04T02:20:30;101887.83;;;6.38;100.00
38289;BME280;24092;53.370;-6.588;2023-04-04T02:22:57;101891.90;;;6.08;100.00
38289;BME280;24092;53.370;-6.588;2023-04-04T02:25:25;101895.71;;;5.95;100.00
38289;BME280;24092;53.370;-6.588;2023-04-04T02:27:52;101895.96;;;6.07;100.00
38289;BME280;24092;53.370;-6.588;2023-04-04T02:30:19;101896.25;;;5.42;100.00
38289;BME280;24092;53.370;-6.588;2023-04-04T02:32:46;101891.77;;;5.54;100.00
38289;BME280;24092;53.370;-6.588;2023-04-04T02:35:13;101889.69;;;5.50;100.00
38289;BME280;24092;53.370;-6.588;2023-04-04T02:37:43;101886.54;;;6.09;100.00
38289;BME280;24092;53.370;-6.588;2023-04-04T02:40:11;101885.53;;;5.79;100.00
38289;BME280;24092;53.370;-6.588;2023-04-04T02:42:42;101885.35;;;6.26;100.00
38289;BME280;24092;53.370;-6.588;2023-04-04T02:45:09;101881.65;;;5.97;100.00
38289;BME280;24092;53.370;-6.588;2023-04-04T02:47:37;101876.97;;;6.11;100.00
38289;BME280;24092;53.370;-6.588;2023-04-04T02:50:05;101879.51;;;5.94;100.00
38289;BME280;24092;53.370;-6.588;2023-04-04T02:52:32;101878.40;;;5.76;100.00
38289;BME280;24092;53.370;-6.588;2023-04-04T02:54:58;101882.09;;;5.47;100.00
38289;BME280;24092;53.370;-6.588;2023-04-04T02:57:26;101876.51;;;4.53;100.00
38289;BME280;24092;53.370;-6.588;2023-04-04T02:59:53;101878.62;;;4.33;100.00
38289;BME280;24092;53.370;-6.588;2023-04-04T03:02:23;101878.53;;;4.97;100.00
38289;BME280;24092;53.370;-6.588;2023-04-04T03:04:50;101875.54;;;4.54;100.00
38289;BME280;24092;53.370;-6.588;2023-04-04T03:07:17;101870.74;;;4.44;100.00
38289;BME280;24092;53.370;-6.588;2023-04-04T03:09:44;101870.55;;;4.09;100.00
38289;BME280;24092;53.370;-6.588;2023-04-04T03:12:11;101868.80;;;3.96;100.00
38289;BME280;24092;53.370;-6.588;2023-04-04T03:14:38;101870.12;;;4.03;100.00
38289;BME280;24092;53.370;-6.588;2023-04-04T03:17:06;101865.64;;;4.47;100.00
38289;BME280;24092;53.370;-6.588;2023-04-04T03:19:32;101860.79;;;4.60;100.00
38289;BME280;24092;53.370;-6.588;2023-04-04T03:21:59;101857.54;;;4.98;100.00
38289;BME280;24092;53.370;-6.588;2023-04-04T03:24:26;101856.80;;;5.39;100.00
38289;BME280;24092;53.370;-6.588;2023-04-04T03:26:53;101850.64;;;5.65;100.00
38289;BME280;24092;53.370;-6.588;2023-04-04T03:29:21;101847.41;;;5.32;100.00
38289;BME280;24092;53.370;-6.588;2023-04-04T03:31:48;101845.66;;;5.52;100.00
38289;BME280;24092;53.370;-6.588;2023-04-04T03:34:15;101845.72;;;5.62;100.00
38289;BME280;24092;53.370;-6.588;2023-04-04T03:36:42;101842.05;;;5.21;100.00
38289;BME280;24092;53.370;-6.588;2023-04-04T03:39:09;101840.36;;;5.01;100.00
38289;BME280;24092;53.370;-6.588;2023-04-04T03:41:36;101836.30;;;4.33;100.00
38289;BME280;24092;53.370;-6.588;2023-04-04T03:44:03;101827.64;;;4.13;100.00
38289;BME280;24092;53.370;-6.588;2023-04-04T03:46:30;101822.35;;;4.23;100.00
38289;BME280;24092;53.370;-6.588;2023-04-04T03:48:58;101820.61;;;3.93;100.00
38289;BME280;24092;53.370;-6.588;2023-04-04T03:51:26;101818.31;;;4.19;100.00
38289;BME280;24092;53.370;-6.588;2023-04-04T03:53:53;101809.56;;;4.02;100.00
38289;BME280;24092;53.370;-6.588;2023-04-04T03:56:20;101810.84;;;3.94;100.00
38289;BME280;24092;53.370;-6.588;2023-04-04T03:58:47;101811.26;;;3.47;100.00
38289;BME280;24092;53.370;-6.588;2023-04-04T04:01:14;101809.77;;;3.32;100.00
38289;BME280;24092;53.370;-6.588;2023-04-04T04:03:41;101803.17;;;3.42;100.00
38289;BME280;24092;53.370;-6.588;2023-04-04T04:06:08;101801.55;;;3.62;100.00
38289;BME280;24092;53.370;-6.588;2023-04-04T04:08:35;101808.43;;;3.71;100.00
38289;BME280;24092;53.370;-6.588;2023-04-04T04:11:03;101810.18;;;3.67;100.00
38289;BME280;24092;53.370;-6.588;2023-04-04T04:13:30;101810.18;;;3.74;100.00
38289;BME280;24092;53.370;-6.588;2023-04-04T04:15:57;101805.76;;;3.63;100.00
38289;BME280;24092;53.370;-6.588;2023-04-04T04:18:24;101796.54;;;3.95;100.00
38289;BME280;24092;53.370;-6.588;2023-04-04T04:20:55;101802.24;;;2.95;100.00
38289;BME280;24092;53.370;-6.588;2023-04-04T04:23:22;101806.95;;;3.56;100.00
38289;BME280;24092;53.370;-6.588;2023-04-04T04:25:50;101810.20;;;3.07;100.00
38289;BME280;24092;53.370;-6.588;2023-04-04T04:28:17;101809.57;;;2.89;100.00
38289;BME280;24092;53.370;-6.588;2023-04-04T04:30:44;101814.97;;;2.80;100.00
38289;BME280;24092;53.370;-6.588;2023-04-04T04:33:11;101816.95;;;3.01;100.00
38289;BME280;24092;53.370;-6.588;2023-04-04T04:35:38;101811.08;;;3.04;100.00
38289;BME280;24092;53.370;-6.588;2023-04-04T04:38:05;101812.59;;;2.89;100.00
38289;BME280;24092;53.370;-6.588;2023-04-04T04:40:32;101810.21;;;3.10;100.00
38289;BME280;24092;53.370;-6.588;2023-04-04T04:42:59;101810.31;;;3.09;100.00
38289;BME280;24092;53.370;-6.588;2023-04-04T04:45:26;101807.86;;;2.55;100.00
38289;BME280;24092;53.370;-6.588;2023-04-04T04:47:53;101810.05;;;2.65;100.00
38289;BME280;24092;53.370;-6.588;2023-04-04T04:50:21;101809.85;;;2.95;100.00
38289;BME280;24092;53.370;-6.588;2023-04-04T04:52:49;101811.42;;;2.56;100.00
38289;BME280;24092;53.370;-6.588;2023-04-04T04:55:17;101814.55;;;3.05;100.00
38289;BME280;24092;53.370;-6.588;2023-04-04T04:57:46;101812.35;;;3.19;100.00
38289;BME280;24092;53.370;-6.588;2023-04-04T05:00:13;101810.98;;;3.13;100.00
38289;BME280;24092;53.370;-6.588;2023-04-04T05:02:41;101809.63;;;3.01;100.00
38289;BME280;24092;53.370;-6.588;2023-04-04T05:05:08;101806.66;;;3.03;100.00
38289;BME280;24092;53.370;-6.588;2023-04-04T05:07:35;101797.99;;;3.28;100.00
38289;BME280;24092;53.370;-6.588;2023-04-04T05:10:02;101800.66;;;2.91;100.00
38289;BME280;24092;53.370;-6.588;2023-04-04T05:12:29;101804.41;;;2.89;100.00
38289;BME280;24092;53.370;-6.588;2023-04-04T05:14:56;101803.89;;;3.51;100.00
38289;BME280;24092;53.370;-6.588;2023-04-04T05:17:23;101805.51;;;2.86;100.00
38289;BME280;24092;53.370;-6.588;2023-04-04T05:19:50;101801.24;;;2.56;100.00
38289;BME280;24092;53.370;-6.588;2023-04-04T05:22:18;101799.74;;;3.02;100.00
38289;BME280;24092;53.370;-6.588;2023-04-04T05:24:44;101797.08;;;2.45;100.00
38289;BME280;24092;53.370;-6.588;2023-04-04T05:27:12;101800.52;;;2.95;100.00
38289;BME280;24092;53.370;-6.588;2023-04-04T05:29:39;101794.01;;;2.92;100.00
38289;BME280;24092;53.370;-6.588;2023-04-04T05:32:06;101794.62;;;2.72;100.00
38289;BME280;24092;53.370;-6.588;2023-04-04T05:34:33;101792.61;;;2.68;100.00
38289;BME280;24092;53.370;-6.588;2023-04-04T05:37:00;101793.44;;;2.73;100.00
38289;BME280;24092;53.370;-6.588;2023-04-04T05:39:27;101797.53;;;2.93;100.00
38289;BME280;24092;53.370;-6.588;2023-04-04T05:41:54;101798.94;;;3.13;100.00
38289;BME280;24092;53.370;-6.588;2023-04-04T05:44:21;101800.59;;;2.97;100.00
38289;BME280;24092;53.370;-6.588;2023-04-04T05:46:49;101798.81;;;3.01;100.00
38289;BME280;24092;53.370;-6.588;2023-04-04T05:49:16;101801.77;;;2.76;100.00
38289;BME280;24092;53.370;-6.588;2023-04-04T05:51:43;101799.26;;;3.06;100.00
38289;BME280;24092;53.370;-6.588;2023-04-04T05:54:10;101802.74;;;3.31;100.00
38289;BME280;24092;53.370;-6.588;2023-04-04T05:56:37;101805.74;;;2.78;100.00
38289;BME280;24092;53.370;-6.588;2023-04-04T05:59:04;101807.96;;;2.76;100.00
38289;BME280;24092;53.370;-6.588;2023-04-04T06:01:31;101816.34;;;3.20;100.00
38289;BME280;24092;53.370;-6.588;2023-04-04T06:03:58;101814.60;;;2.78;100.00
38289;BME280;24092;53.370;-6.588;2023-04-04T06:06:25;101812.12;;;3.37;100.00
38289;BME280;24092;53.370;-6.588;2023-04-04T06:08:52;101808.11;;;2.97;100.00
38289;BME280;24092;53.370;-6.588;2023-04-04T06:11:20;101811.53;;;2.99;100.00
38289;BME280;24092;53.370;-6.588;2023-04-04T06:13:47;101814.68;;;2.93;100.00
38289;BME280;24092;53.370;-6.588;2023-04-04T06:16:14;101819.02;;;3.31;100.00
38289;BME280;24092;53.370;-6.588;2023-04-04T06:18:41;101822.78;;;2.53;100.00
38289;BME280;24092;53.370;-6.588;2023-04-04T06:21:08;101820.59;;;3.02;100.00
38289;BME280;24092;53.370;-6.588;2023-04-04T06:23:35;101822.21;;;2.95;100.00
38289;BME280;24092;53.370;-6.588;2023-04-04T06:26:03;101825.72;;;3.16;100.00
38289;BME280;24092;53.370;-6.588;2023-04-04T06:28:30;101825.79;;;2.59;100.00
38289;BME280;24092;53.370;-6.588;2023-04-04T06:30:57;101824.39;;;2.57;100.00
38289;BME280;24092;53.370;-6.588;2023-04-04T06:33:24;101824.56;;;2.57;100.00
38289;BME280;24092;53.370;-6.588;2023-04-04T06:35:51;101825.90;;;2.31;100.00
38289;BME280;24092;53.370;-6.588;2023-04-04T06:38:18;101820.88;;;2.00;100.00
38289;BME280;24092;53.370;-6.588;2023-04-04T06:40:45;101819.52;;;2.50;100.00
38289;BME280;24092;53.370;-6.588;2023-04-04T06:43:12;101826.04;;;2.37;100.00
38289;BME280;24092;53.370;-6.588;2023-04-04T06:45:39;101832.27;;;2.13;100.00
38289;BME280;24092;53.370;-6.588;2023-04-04T06:48:07;101829.93;;;2.01;100.00
38289;BME280;24092;53.370;-6.588;2023-04-04T06:50:33;101833.01;;;2.46;100.00
38289;BME280;24092;53.370;-6.588;2023-04-04T06:53:01;101827.94;;;2.72;100.00
38289;BME280;24092;53.370;-6.588;2023-04-04T06:55:27;101827.90;;;2.74;100.00
38289;BME280;24092;53.370;-6.588;2023-04-04T06:57:54;101816.18;;;2.61;100.00
38289;BME280;24092;53.370;-6.588;2023-04-04T07:00:22;101807.86;;;2.53;100.00
38289;BME280;24092;53.370;-6.588;2023-04-04T07:02:50;101806.30;;;2.22;100.00
38289;BME280;24092;53.370;-6.588;2023-04-04T07:05:22;101809.45;;;2.61;100.00
38289;BME280;24092;53.370;-6.588;2023-04-04T07:07:51;101812.98;;;2.55;100.00
38289;BME280;24092;53.370;-6.588;2023-04-04T07:10:17;101816.44;;;2.44;100.00
38289;BME280;24092;53.370;-6.588;2023-04-04T07:12:44;101814.20;;;2.65;100.00
38289;BME280;24092;53.370;-6.588;2023-04-04T07:15:11;101815.32;;;2.81;100.00
38289;BME280;24092;53.370;-6.588;2023-04-04T07:17:39;101810.53;;;3.03;100.00
38289;BME280;24092;53.370;-6.588;2023-04-04T07:20:07;101812.27;;;2.97;100.00
38289;BME280;24092;53.370;-6.588;2023-04-04T07:22:36;101809.02;;;3.06;100.00
38289;BME280;24092;53.370;-6.588;2023-04-04T07:25:04;101806.07;;;2.39;100.00
38289;BME280;24092;53.370;-6.588;2023-04-04T07:27:31;101801.56;;;2.95;100.00
38289;BME280;24092;53.370;-6.588;2023-04-04T07:29:58;101798.80;;;2.87;100.00
38289;BME280;24092;53.370;-6.588;2023-04-04T07:32:25;101797.69;;;2.70;100.00
38289;BME280;24092;53.370;-6.588;2023-04-04T07:34:52;101790.79;;;3.25;100.00
38289;BME280;24092;53.370;-6.588;2023-04-04T07:37:19;101790.44;;;3.74;100.00
38289;BME280;24092;53.370;-6.588;2023-04-04T07:39:46;101790.60;;;3.43;100.00
38289;BME280;24092;53.370;-6.588;2023-04-04T07:42:13;101795.71;;;3.30;100.00
38289;BME280;24092;53.370;-6.588;2023-04-04T07:44:40;101792.52;;;3.04;100.00
38289;BME280;24092;53.370;-6.588;2023-04-04T07:47:07;101786.36;;;2.78;100.00
38289;BME280;24092;53.370;-6.588;2023-04-04T07:49:35;101783.10;;;2.89;100.00
38289;BME280;24092;53.370;-6.588;2023-04-04T07:52:03;101791.13;;;2.66;100.00
38289;BME280;24092;53.370;-6.588;2023-04-04T07:54:30;101798.32;;;2.73;100.00
38289;BME280;24092;53.370;-6.588;2023-04-04T07:56:57;101795.28;;;3.20;100.00
38289;BME280;24092;53.370;-6.588;2023-04-04T07:59:24;101795.25;;;3.31;100.00
38289;BME280;24092;53.370;-6.588;2023-04-04T08:01:52;101784.83;;;3.64;100.00
38289;BME280;24092;53.370;-6.588;2023-04-04T08:04:19;101785.89;;;3.36;100.00
38289;BME280;24092;53.370;-6.588;2023-04-04T08:06:46;101777.47;;;2.98;100.00
38289;BME280;24092;53.370;-6.588;2023-04-04T08:09:13;101775.01;;;3.11;100.00
38289;BME280;24092;53.370;-6.588;2023-04-04T08:11:40;101778.41;;;2.79;100.00
38289;BME280;24092;53.370;-6.588;2023-04-04T08:14:07;101779.96;;;3.22;100.00
38289;BME280;24092;53.370;-6.588;2023-04-04T08:16:34;101786.55;;;3.32;100.00
38289;BME280;24092;53.370;-6.588;2023-04-04T08:19:01;101782.37;;;3.82;100.00
38289;BME280;24092;53.370;-6.588;2023-04-04T08:21:29;101781.50;;;3.81;100.00
38289;BME280;24092;53.370;-6.588;2023-04-04T08:23:56;101781.66;;;3.07;100.00
38289;BME280;24092;53.370;-6.588;2023-04-04T08:26:23;101783.67;;;3.42;100.00
38289;BME280;24092;53.370;-6.588;2023-04-04T08:28:50;101791.05;;;3.19;100.00
38289;BME280;24092;53.370;-6.588;2023-04-04T08:31:17;101788.22;;;3.44;100.00
38289;BME280;24092;53.370;-6.588;2023-04-04T08:33:43;101785.53;;;3.10;100.00
38289;BME280;24092;53.370;-6.588;2023-04-04T08:36:10;101772.95;;;2.88;100.00
38289;BME280;24092;53.370;-6.588;2023-04-04T08:38:37;101772.46;;;3.42;100.00
38289;BME280;24092;53.370;-6.588;2023-04-04T08:41:04;101763.22;;;3.57;100.00
38289;BME280;24092;53.370;-6.588;2023-04-04T08:43:33;101766.09;;;3.32;100.00
38289;BME280;24092;53.370;-6.588;2023-04-04T08:46:03;101765.04;;;2.54;100.00
38289;BME280;24092;53.370;-6.588;2023-04-04T08:48:32;101755.76;;;2.93;100.00
38289;BME280;24092;53.370;-6.588;2023-04-04T08:51:00;101757.76;;;2.90;100.00
38289;BME280;24092;53.370;-6.588;2023-04-04T08:53:30;101755.80;;;3.52;100.00
38289;BME280;24092;53.370;-6.588;2023-04-04T08:55:59;101757.46;;;2.99;100.00
38289;BME280;24092;53.370;-6.588;2023-04-04T08:58:26;101757.32;;;2.76;100.00
38289;BME280;24092;53.370;-6.588;2023-04-04T09:00:54;101761.08;;;3.23;100.00
38289;BME280;24092;53.370;-6.588;2023-04-04T09:03:24;101754.20;;;3.47;100.00
38289;BME280;24092;53.370;-6.588;2023-04-04T09:05:52;101750.92;;;3.29;100.00
38289;BME280;24092;53.370;-6.588;2023-04-04T09:08:21;101743.82;;;3.66;100.00
38289;BME280;24092;53.370;-6.588;2023-04-04T09:10:49;101748.63;;;3.15;100.00
38289;BME280;24092;53.370;-6.588;2023-04-04T09:13:16;101747.00;;;3.34;100.00
38289;BME280;24092;53.370;-6.588;2023-04-04T09:15:47;101749.00;;;3.21;100.00
38289;BME280;24092;53.370;-6.588;2023-04-04T09:18:15;101746.65;;;3.61;100.00
38289;BME280;24092;53.370;-6.588;2023-04-04T09:20:42;101747.70;;;3.64;100.00
38289;BME280;24092;53.370;-6.588;2023-04-04T09:23:12;101746.61;;;3.55;100.00
38289;BME280;24092;53.370;-6.588;2023-04-04T09:25:44;101744.11;;;3.57;100.00
38289;BME280;24092;53.370;-6.588;2023-04-04T09:28:13;101749.16;;;3.76;100.00
38289;BME280;24092;53.370;-6.588;2023-04-04T09:30:41;101747.36;;;4.10;100.00
38289;BME280;24092;53.370;-6.588;2023-04-04T09:33:10;101748.51;;;3.87;100.00
38289;BME280;24092;53.370;-6.588;2023-04-04T09:35:39;101750.67;;;4.00;100.00
38289;BME280;24092;53.370;-6.588;2023-04-04T09:38:07;101752.31;;;4.37;100.00
38289;BME280;24092;53.370;-6.588;2023-04-04T09:40:35;101748.09;;;3.95;100.00
38289;BME280;24092;53.370;-6.588;2023-04-04T09:43:05;101748.68;;;3.94;100.00
38289;BME280;24092;53.370;-6.588;2023-04-04T09:45:34;101745.92;;;3.75;100.00
38289;BME280;24092;53.370;-6.588;2023-04-04T09:48:02;101749.98;;;3.44;100.00
38289;BME280;24092;53.370;-6.588;2023-04-04T09:50:29;101745.86;;;3.99;100.00
38289;BME280;24092;53.370;-6.588;2023-04-04T09:52:57;101746.12;;;4.28;100.00
38289;BME280;24092;53.370;-6.588;2023-04-04T09:55:31;101741.90;;;4.53;100.00
38289;BME280;24092;53.370;-6.588;2023-04-04T09:57:59;101739.15;;;4.61;100.00
38289;BME280;24092;53.370;-6.588;2023-04-04T10:00:29;101738.84;;;4.09;100.00
38289;BME280;24092;53.370;-6.588;2023-04-04T10:02:56;101741.93;;;4.45;100.00
38289;BME280;24092;53.370;-6.588;2023-04-04T10:05:23;101738.67;;;3.76;100.00
38289;BME280;24092;53.370;-6.588;2023-04-04T10:07:51;101742.23;;;3.96;100.00
38289;BME280;24092;53.370;-6.588;2023-04-04T10:10:19;101740.00;;;4.07;100.00
38289;BME280;24092;53.370;-6.588;2023-04-04T10:12:46;101742.76;;;3.99;100.00
38289;BME280;24092;53.370;-6.588;2023-04-04T10:15:15;101744.07;;;4.05;100.00
38289;BME280;24092;53.370;-6.588;2023-04-04T10:17:42;101747.04;;;4.11;100.00
38289;BME280;24092;53.370;-6.588;2023-04-04T10:20:10;101745.57;;;3.64;100.00
38289;BME280;24092;53.370;-6.588;2023-04-04T10:22:38;101745.43;;;3.84;100.00
38289;BME280;24092;53.370;-6.588;2023-04-04T10:25:06;101745.76;;;4.08;100.00
38289;BME280;24092;53.370;-6.588;2023-04-04T10:27:33;101752.40;;;4.01;100.00
38289;BME280;24092;53.370;-6.588;2023-04-04T10:30:01;101752.45;;;3.83;100.00
38289;BME280;24092;53.370;-6.588;2023-04-04T10:32:36;101746.44;;;3.83;100.00
38289;BME280;24092;53.370;-6.588;2023-04-04T10:35:05;101744.69;;;3.77;100.00
38289;BME280;24092;53.370;-6.588;2023-04-04T10:37:36;101739.53;;;4.42;100.00
38289;BME280;24092;53.370;-6.588;2023-04-04T10:40:09;101737.80;;;3.80;100.00
38289;BME280;24092;53.370;-6.588;2023-04-04T10:42:39;101731.89;;;4.30;100.00
38289;BME280;24092;53.370;-6.588;2023-04-04T10:45:08;101734.45;;;3.87;100.00
38289;BME280;24092;53.370;-6.588;2023-04-04T10:47:36;101728.76;;;4.14;100.00
38289;BME280;24092;53.370;-6.588;2023-04-04T10:50:05;101727.66;;;3.97;100.00
38289;BME280;24092;53.370;-6.588;2023-04-04T10:52:33;101730.23;;;4.12;100.00
38289;BME280;24092;53.370;-6.588;2023-04-04T10:55:03;101722.16;;;4.24;100.00
38289;BME280;24092;53.370;-6.588;2023-04-04T10:57:33;101715.51;;;4.40;100.00
38289;BME280;24092;53.370;-6.588;2023-04-04T11:00:04;101717.72;;;4.28;100.00
38289;BME280;24092;53.370;-6.588;2023-04-04T11:02:52;101715.95;;;4.54;100.00
38289;BME280;24092;53.370;-6.588;2023-04-04T11:05:22;101711.97;;;4.44;100.00
38289;BME280;24092;53.370;-6.588;2023-04-04T11:07:56;101700.57;;;4.42;100.00
38289;BME280;24092;53.370;-6.588;2023-04-04T11:10:25;101699.58;;;4.18;100.00
38289;BME280;24092;53.370;-6.588;2023-04-04T11:12:54;101692.33;;;4.68;100.00
38289;BME280;24092;53.370;-6.588;2023-04-04T11:15:22;101691.00;;;4.56;100.00
38289;BME280;24092;53.370;-6.588;2023-04-04T11:17:55;101696.89;;;4.73;100.00
38289;BME280;24092;53.370;-6.588;2023-04-04T11:20:27;101696.64;;;4.15;100.00
38289;BME280;24092;53.370;-6.588;2023-04-04T11:23:15;101694.78;;;4.82;100.00
38289;BME280;24092;53.370;-6.588;2023-04-04T11:25:49;101695.72;;;4.73;100.00
38289;BME280;24092;53.370;-6.588;2023-04-04T11:28:26;101696.15;;;4.58;100.00
38289;BME280;24092;53.370;-6.588;2023-04-04T11:31:32;101693.18;;;5.20;100.00
38289;BME280;24092;53.370;-6.588;2023-04-04T11:34:02;101698.08;;;4.92;100.00
38289;BME280;24092;53.370;-6.588;2023-04-04T11:37:14;101690.85;;;5.61;100.00
38289;BME280;24092;53.370;-6.588;2023-04-04T11:39:47;101686.31;;;5.34;100.00
38289;BME280;24092;53.370;-6.588;2023-04-04T11:42:15;101687.14;;;5.41;100.00
38289;BME280;24092;53.370;-6.588;2023-04-04T11:45:01;101677.50;;;5.61;100.00
38289;BME280;24092;53.370;-6.588;2023-04-04T11:47:28;101666.21;;;5.22;100.00
38289;BME280;24092;53.370;-6.588;2023-04-04T11:49:57;101666.42;;;5.31;100.00
38289;BME280;24092;53.370;-6.588;2023-04-04T11:52:25;101661.11;;;5.38;100.00
38289;BME280;24092;53.370;-6.588;2023-04-04T11:54:52;101664.23;;;5.40;100.00
38289;BME280;24092;53.370;-6.588;2023-04-04T11:57:20;101667.52;;;5.57;100.00
38289;BME280;24092;53.370;-6.588;2023-04-04T11:59:49;101663.38;;;5.62;100.00
38289;BME280;24092;53.370;-6.588;2023-04-04T12:02:19;101660.43;;;5.79;100.00
38289;BME280;24092;53.370;-6.588;2023-04-04T12:04:46;101654.47;;;5.69;100.00
38289;BME280;24092;53.370;-6.588;2023-04-04T12:07:16;101647.36;;;5.84;100.00
38289;BME280;24092;53.370;-6.588;2023-04-04T12:09:43;101641.37;;;5.73;100.00
38289;BME280;24092;53.370;-6.588;2023-04-04T12:12:12;101647.01;;;6.27;100.00
38289;BME280;24092;53.370;-6.588;2023-04-04T12:14:39;101647.37;;;6.54;100.00
38289;BME280;24092;53.370;-6.588;2023-04-04T12:17:06;101645.69;;;5.92;100.00
38289;BME280;24092;53.370;-6.588;2023-04-04T12:19:36;101638.69;;;6.45;100.00
38289;BME280;24092;53.370;-6.588;2023-04-04T12:22:04;101637.84;;;6.41;100.00
38289;BME280;24092;53.370;-6.588;2023-04-04T12:24:31;101621.14;;;5.16;100.00
38289;BME280;24092;53.370;-6.588;2023-04-04T12:26:59;101614.07;;;4.57;100.00
38289;BME280;24092;53.370;-6.588;2023-04-04T12:29:28;101620.58;;;7.43;100.00
38289;BME280;24092;53.370;-6.588;2023-04-04T12:31:56;101619.10;;;6.77;100.00
38289;BME280;24092;53.370;-6.588;2023-04-04T12:34:24;101620.70;;;7.08;100.00
38289;BME280;24092;53.370;-6.588;2023-04-04T12:36:55;101618.85;;;6.88;100.00
38289;BME280;24092;53.370;-6.588;2023-04-04T12:39:25;101617.81;;;6.39;100.00
38289;BME280;24092;53.370;-6.588;2023-04-04T12:41:56;101616.97;;;6.52;100.00
38289;BME280;24092;53.370;-6.588;2023-04-04T12:44:28;101615.23;;;6.22;100.00
38289;BME280;24092;53.370;-6.588;2023-04-04T12:46:56;101604.60;;;6.41;100.00